This is the latest recevied weather packets stored in our database for station/object K3MV-13. If no packets are shown the sender has not sent any weather packets the latest 10 day(s).
| Time | Temp. | Humidity | Pressure | Rain* | Wind** | Luminosity | Snow |
|---|---|---|---|---|---|---|---|
| 1777818908 | 6.67° C | 52% | 1017.4 hPa | 0 mm | - | 683 W/m² | - |
| 1777818604 | 7.22° C | 54% | 1017.4 hPa | 0 mm | - | 299 W/m² | - |
| 1777818302 | 6.67° C | 51% | 1017.1 hPa | 0 mm | - | 699 W/m² | - |
| 1777817998 | 6.67° C | 53% | 1017.3 hPa | 0 mm | - | 94 W/m² | - |
| 1777817695 | 6.11° C | 56% | 1017.2 hPa | 0 mm | - | 178 W/m² | - |
| 1777817392 | 7.22° C | 52% | 1017.2 hPa | 0 mm | - | 165 W/m² | - |
| 1777817089 | 7.22° C | 52% | 1017.1 hPa | 0 mm | - | 676 W/m² | - |
| 1777816785 | 7.22° C | 56% | 1017.2 hPa | 0 mm | - | 600 W/m² | - |
| 1777816483 | 6.67° C | 56% | 1017.2 hPa | 0 mm | - | 591 W/m² | - |
| 1777816180 | 6.11° C | 56% | 1017.2 hPa | 0 mm | - | 550 W/m² | - |
| 1777815878 | 6.11° C | 60% | 1017.2 hPa | 0 mm | - | 576 W/m² | - |
| 1777815575 | 5.56° C | 62% | 1017.2 hPa | 0 mm | - | 531 W/m² | - |
| 1777815273 | 5.56° C | 59% | 1017.1 hPa | 0 mm | - | 512 W/m² | - |
| 1777814968 | 5.56° C | 61% | 1016.9 hPa | 0 mm | - | 498 W/m² | - |
| 1777814665 | 5.56° C | 65% | 1017 hPa | 0 mm | - | 451 W/m² | - |
| 1777814362 | 5.56° C | 61% | 1017 hPa | 0 mm | - | 446 W/m² | - |
| 1777814059 | 5.56° C | 63% | 1016.9 hPa | 0 mm | - | 428 W/m² | - |
| 1777813756 | 5.56° C | 63% | 1017 hPa | 0 mm | - | 409 W/m² | - |
| 1777813453 | 5° C | 65% | 1017 hPa | 0 mm | - | 392 W/m² | - |
| 1777813150 | 5° C | 65% | 1016.8 hPa | 0 mm | - | 379 W/m² | - |
| 1777812848 | 5° C | 67% | 1017 hPa | 0 mm | - | 360 W/m² | - |
| 1777812544 | 4.44° C | 67% | 1017 hPa | 0 mm | - | 343 W/m² | - |
| 1777812243 | 4.44° C | 69% | 1016.8 hPa | 0 mm | - | 329 W/m² | - |
| 1777811941 | 4.44° C | 72% | 1017 hPa | 0 mm | - | 308 W/m² | - |
| 1777811639 | 3.89° C | 74% | 1016.8 hPa | 0 mm | - | 290 W/m² | - |
* Rain latest hour (hover to see other rain measurements)
** Current wind speed in m/s (hover to see current wind gust speed)